Time;durP1;ratioP1;P1;durP2;ratioP2;P2;SDS_P1;SDS_P2;PMS_P1;PMS_P2;Temp;Humidity;BMP_temperature;BMP_pressure;BME280_temperature;BME280_humidity;BME280_pressure;Samples;Min_cycle;Max_cycle;Signal;HPM_P1;HPM_P2
2022/03/07 00:00:30;;;;;;;37.38;20.60;;;;;;;2.33;100.00;101344.00;4956548;29;20599;-73
2022/03/07 00:03:16;;;;;;;33.65;20.42;;;;;;;1.98;100.00;101332.75;4956448;28;20055;-73
2022/03/07 00:06:02;;;;;;;33.80;19.80;;;;;;;2.11;100.00;101329.66;4956300;29;20468;-71
2022/03/07 00:08:49;;;;;;;33.00;18.92;;;;;;;2.41;100.00;101327.84;4957929;29;20077;-72
2022/03/07 00:11:35;;;;;;;29.02;17.65;;;;;;;2.42;100.00;101331.31;4957215;29;20035;-73
2022/03/07 00:14:21;;;;;;;29.35;17.60;;;;;;;2.59;100.00;101330.00;4942304;29;20407;-73
2022/03/07 00:17:07;;;;;;;31.02;18.02;;;;;;;2.50;100.00;101325.50;4956010;29;20031;-73
2022/03/07 00:19:53;;;;;;;27.98;16.20;;;;;;;2.47;100.00;101327.13;4956768;29;20043;-73
2022/03/07 00:22:38;;;;;;;24.98;16.02;;;;;;;2.20;100.00;101319.56;4942880;28;20031;-73
2022/03/07 00:25:24;;;;;;;25.00;15.18;;;;;;;2.22;100.00;101317.00;4957335;29;20035;-73
2022/03/07 00:28:10;;;;;;;26.92;15.02;;;;;;;2.48;100.00;101313.34;4956220;29;20031;-73
2022/03/07 00:30:56;;;;;;;27.00;16.02;;;;;;;2.08;100.00;101303.72;4956530;29;20032;-72
2022/03/07 00:33:42;;;;;;;26.17;15.75;;;;;;;1.93;100.00;101289.56;4942514;29;20360;-72
2022/03/07 00:36:28;;;;;;;29.73;17.17;;;;;;;2.19;100.00;101298.84;4955976;29;20050;-72
2022/03/07 00:39:13;;;;;;;29.90;18.85;;;;;;;2.22;100.00;101302.38;4956275;29;20035;-72
2022/03/07 00:41:59;;;;;;;36.72;21.90;;;;;;;2.07;100.00;101293.34;4955840;29;20099;-72
2022/03/07 00:44:45;;;;;;;43.92;24.65;;;;;;;2.01;100.00;101283.72;4956277;29;20031;-73
2022/03/07 00:47:31;;;;;;;38.85;23.23;;;;;;;2.17;100.00;101285.88;4956034;29;20361;-72
2022/03/07 00:50:16;;;;;;;41.63;22.25;;;;;;;2.03;100.00;101281.19;4956684;29;20118;-72
2022/03/07 00:53:02;;;;;;;36.65;20.77;;;;;;;1.82;100.00;101281.53;4942761;29;20098;-72
2022/03/07 00:55:49;;;;;;;32.80;19.95;;;;;;;2.03;100.00;101279.50;4955208;28;20031;-72
2022/03/07 00:58:35;;;;;;;31.27;18.92;;;;;;;1.72;100.00;101276.06;4956957;29;20057;-72
2022/03/07 01:01:21;;;;;;;28.65;17.35;;;;;;;1.74;100.00;101269.22;4956621;29;20118;-72
2022/03/07 01:04:07;;;;;;;31.08;17.17;;;;;;;1.53;100.00;101269.50;4955336;28;20133;-74
2022/03/07 01:06:53;;;;;;;28.90;17.48;;;;;;;1.68;100.00;101269.09;4955395;29;20034;-72
2022/03/07 01:09:38;;;;;;;30.17;18.02;;;;;;;1.97;100.00;101263.81;4955924;29;20034;-72
2022/03/07 01:12:24;;;;;;;30.63;17.40;;;;;;;1.72;100.00;101263.16;4942203;28;20031;-71
2022/03/07 01:15:10;;;;;;;32.72;16.95;;;;;;;1.55;100.00;101259.22;4955272;29;20040;-73
2022/03/07 01:17:59;;;;;;;25.98;16.13;;;;;;;1.28;100.00;101266.25;4955209;29;20027;-72
2022/03/07 01:20:45;;;;;;;28.45;16.23;;;;;;;1.49;100.00;101251.34;4956560;29;20400;-72
2022/03/07 01:23:30;;;;;;;24.55;14.93;;;;;;;1.21;100.00;101272.03;4955331;28;20121;-72
2022/03/07 01:26:16;;;;;;;27.52;14.32;;;;;;;1.27;100.00;101264.47;4955522;29;20337;-70
2022/03/07 01:29:03;;;;;;;24.83;14.52;;;;;;;1.34;100.00;101262.13;4955461;29;20034;-70
2022/03/07 01:31:49;;;;;;;22.85;13.50;;;;;;;1.42;100.00;101254.56;4957268;28;20035;-71
2022/03/07 01:34:34;;;;;;;26.80;15.02;;;;;;;1.16;100.00;101251.25;4955321;29;20423;-71
2022/03/07 01:37:20;;;;;;;25.60;14.38;;;;;;;1.24;100.00;101254.94;4956089;29;20469;-74
2022/03/07 01:40:07;;;;;;;28.15;15.85;;;;;;;1.48;100.00;101250.44;4955125;29;20118;-70
2022/03/07 01:42:52;;;;;;;28.42;15.77;;;;;;;1.55;100.00;101254.94;4955036;28;20035;-72
2022/03/07 01:45:41;;;;;;;25.92;14.60;;;;;;;1.44;100.00;101269.28;4941615;29;20030;-72
2022/03/07 01:48:27;;;;;;;27.50;16.23;;;;;;;1.57;100.00;101261.00;4941748;29;20046;-72
2022/03/07 01:51:14;;;;;;;26.30;16.27;;;;;;;1.50;100.00;101259.13;4954998;29;20031;-71
2022/03/07 01:54:00;;;;;;;27.17;15.85;;;;;;;1.69;100.00;101265.66;4955123;28;20122;-71
2022/03/07 01:56:48;;;;;;;24.38;14.75;;;;;;;1.62;100.00;101258.56;4954803;29;20019;-71
2022/03/07 01:59:35;;;;;;;27.60;14.93;;;;;;;2.07;100.00;101267.50;4954425;29;20058;-72
2022/03/07 02:02:21;;;;;;;21.20;12.52;;;;;;;1.52;100.00;101261.75;4954925;28;20372;-73
2022/03/07 02:05:08;;;;;;;18.65;12.10;;;;;;;1.35;100.00;101261.28;4942387;29;20054;-72
2022/03/07 02:07:57;;;;;;;20.38;12.43;;;;;;;1.38;100.00;101257.91;4959272;29;20034;-73
2022/03/07 02:10:43;;;;;;;20.52;12.38;;;;;;;1.50;100.00;101263.41;4960365;29;20038;-74
2022/03/07 02:13:29;;;;;;;18.40;11.38;;;;;;;1.12;100.00;101267.47;4958578;28;20111;-73
2022/03/07 02:16:17;;;;;;;19.27;11.55;;;;;;;1.22;100.00;101268.63;4959616;29;20396;-74
2022/03/07 02:19:02;;;;;;;20.55;12.25;;;;;;;1.33;100.00;101278.41;4959552;29;20460;-73
2022/03/07 02:21:51;;;;;;;24.65;13.73;;;;;;;1.52;100.00;101282.41;4958764;29;20110;-74
2022/03/07 02:24:37;;;;;;;29.88;14.75;;;;;;;1.55;100.00;101291.09;4945690;29;20058;-74
2022/03/07 02:27:23;;;;;;;25.45;14.23;;;;;;;1.91;100.00;101286.94;4960843;29;20023;-71
2022/03/07 02:30:09;;;;;;;26.63;15.20;;;;;;;1.79;100.00;101284.03;4962314;29;20046;-72
2022/03/07 02:32:55;;;;;;;28.25;16.20;;;;;;;1.59;100.00;101292.06;4965157;28;20031;-74
2022/03/07 02:35:41;;;;;;;26.75;15.45;;;;;;;1.86;100.00;101298.84;4958886;29;20028;-74
2022/03/07 02:38:27;;;;;;;25.35;15.82;;;;;;;1.79;100.00;101290.88;4945695;29;20027;-73
2022/03/07 02:41:13;;;;;;;26.17;15.85;;;;;;;1.34;100.00;101293.09;4958103;29;20033;-73
2022/03/07 02:43:59;;;;;;;25.00;15.13;;;;;;;1.67;100.00;101285.38;4958239;28;20054;-73
2022/03/07 02:46:44;;;;;;;26.58;14.85;;;;;;;1.52;100.00;101297.91;4945875;29;20055;-74
2022/03/07 02:49:31;;;;;;;25.80;14.98;;;;;;;1.92;100.00;101287.81;4958914;29;20106;-74
2022/03/07 02:52:16;;;;;;;22.80;14.35;;;;;;;1.43;100.00;101287.28;4958610;28;20059;-74
2022/03/07 02:55:03;;;;;;;24.67;14.95;;;;;;;1.56;100.00;101286.81;4945319;29;20038;-75
2022/03/07 02:57:49;;;;;;;24.50;14.50;;;;;;;1.74;100.00;101288.19;4945339;29;20086;-74
2022/03/07 03:00:35;;;;;;;24.98;13.98;;;;;;;1.89;100.00;101285.13;4944909;29;20423;-74
2022/03/07 03:03:20;;;;;;;28.40;15.77;;;;;;;1.41;100.00;101286.38;4944024;29;20075;-73
2022/03/07 03:06:06;;;;;;;30.30;16.83;;;;;;;1.23;100.00;101283.28;4958651;29;20023;-74
2022/03/07 03:08:52;;;;;;;26.00;15.00;;;;;;;1.82;100.00;101288.38;4958491;29;20035;-73
2022/03/07 03:11:38;;;;;;;29.20;15.50;;;;;;;1.62;100.00;101290.44;4944360;29;20046;-73
2022/03/07 03:14:23;;;;;;;27.50;15.43;;;;;;;1.56;100.00;101281.66;4957280;28;20093;-74
2022/03/07 03:17:09;;;;;;;24.95;14.93;;;;;;;1.19;100.00;101277.16;4957202;28;20070;-74
2022/03/07 03:19:55;;;;;;;26.67;15.43;;;;;;;1.26;100.00;101284.25;4958227;29;20425;-74
2022/03/07 03:22:43;;;;;;;26.77;15.10;;;;;;;1.62;100.00;101282.69;4958686;28;20058;-74
2022/03/07 03:25:29;;;;;;;25.17;14.80;;;;;;;1.28;100.00;101273.97;4945229;29;20038;-73
2022/03/07 03:28:15;;;;;;;25.50;14.60;;;;;;;1.55;100.00;101275.59;4960797;29;20050;-76
2022/03/07 03:31:00;;;;;;;27.50;15.35;;;;;;;1.69;100.00;101282.00;4965679;29;20019;-73
2022/03/07 03:33:46;;;;;;;24.48;13.48;;;;;;;1.62;100.00;101274.06;4957998;28;20479;-73
2022/03/07 03:36:32;;;;;;;26.02;15.35;;;;;;;1.43;100.00;101271.81;4953373;29;20035;-73
2022/03/07 03:39:18;;;;;;;28.10;14.32;;;;;;;1.37;100.00;101274.22;4957502;29;20031;-74
2022/03/07 03:42:04;;;;;;;28.77;15.07;;;;;;;1.30;100.00;101277.47;4943883;29;20033;-75
2022/03/07 03:44:50;;;;;;;25.63;15.23;;;;;;;1.07;100.00;101287.13;4958089;29;20031;-74
2022/03/07 03:47:37;;;;;;;23.90;14.05;;;;;;;0.77;100.00;101285.34;4957411;29;20027;-74
2022/03/07 03:50:23;;;;;;;24.08;13.93;;;;;;;1.26;100.00;101284.25;4958206;29;20027;-74
2022/03/07 03:53:09;;;;;;;24.55;13.77;;;;;;;0.99;100.00;101283.44;4957660;28;20042;-75
2022/03/07 03:55:55;;;;;;;23.48;13.13;;;;;;;0.77;100.00;101281.06;4956727;29;20063;-74
2022/03/07 03:58:41;;;;;;;22.95;13.57;;;;;;;0.77;100.00;101277.59;4956630;29;20035;-75
2022/03/07 04:01:26;;;;;;;22.40;12.95;;;;;;;0.83;100.00;101276.06;4956967;29;20046;-74
2022/03/07 04:04:12;;;;;;;24.38;13.38;;;;;;;0.84;100.00;101275.25;4956098;28;20059;-73
2022/03/07 04:06:58;;;;;;;24.13;13.00;;;;;;;0.79;100.00;101281.09;4957636;29;20445;-74
2022/03/07 04:09:44;;;;;;;22.58;12.95;;;;;;;0.71;100.00;101275.69;4956460;29;20038;-74
2022/03/07 04:12:30;;;;;;;20.83;12.73;;;;;;;0.79;100.00;101263.91;4942739;28;20129;-74
2022/03/07 04:15:16;;;;;;;19.67;12.10;;;;;;;0.68;100.00;101265.28;4957208;29;20034;-74
2022/03/07 04:18:02;;;;;;;22.83;12.52;;;;;;;0.99;100.00;101267.97;4942617;29;20031;-73
2022/03/07 04:20:47;;;;;;;21.85;11.90;;;;;;;1.06;100.00;101274.19;4956375;29;20031;-74
2022/03/07 04:23:33;;;;;;;19.42;11.85;;;;;;;1.09;100.00;101266.53;4943064;29;20058;-76
2022/03/07 04:26:19;;;;;;;23.40;12.63;;;;;;;1.00;100.00;101264.53;4956506;29;20034;-73
2022/03/07 04:29:07;;;;;;;20.90;12.90;;;;;;;0.92;100.00;101272.91;4956566;28;20074;-73
2022/03/07 04:31:53;;;;;;;22.70;13.10;;;;;;;0.99;100.00;101267.97;4956761;29;20031;-74
2022/03/07 04:34:39;;;;;;;26.45;14.23;;;;;;;0.95;100.00;101270.41;4942416;29;20082;-74
2022/03/07 04:37:25;;;;;;;21.90;13.05;;;;;;;1.01;100.00;101268.91;4956986;29;20027;-73
2022/03/07 04:40:13;;;;;;;23.25;12.98;;;;;;;1.22;100.00;101263.47;4942693;29;20368;-74
2022/03/07 04:43:01;;;;;;;26.40;13.95;;;;;;;1.09;100.00;101269.13;4956437;28;20054;-75
2022/03/07 04:45:46;;;;;;;25.65;14.32;;;;;;;1.41;100.00;101265.75;4956169;29;20027;-74
2022/03/07 04:48:32;;;;;;;25.90;13.73;;;;;;;1.35;100.00;101269.03;4955515;29;20065;-74
2022/03/07 04:51:18;;;;;;;27.23;14.65;;;;;;;1.30;100.00;101268.03;4956520;29;20031;-73
2022/03/07 04:54:04;;;;;;;25.77;15.55;;;;;;;1.11;100.00;101263.16;4955513;28;20035;-74
2022/03/07 04:56:51;;;;;;;29.50;16.40;;;;;;;1.02;100.00;101262.91;4956369;29;20037;-74
2022/03/07 04:59:37;;;;;;;26.52;16.08;;;;;;;1.00;100.00;101264.53;4956387;29;20174;-73
2022/03/07 05:02:23;;;;;;;28.75;15.57;;;;;;;1.10;100.00;101258.84;4955218;28;20157;-75
2022/03/07 05:05:09;;;;;;;28.05;15.40;;;;;;;1.12;100.00;101264.91;4955750;29;20037;-75
2022/03/07 05:07:55;;;;;;;25.35;15.02;;;;;;;1.20;100.00;101267.72;4955728;29;20023;-74
2022/03/07 05:10:41;;;;;;;27.48;14.73;;;;;;;1.27;100.00;101267.03;4955498;29;20064;-73
2022/03/07 05:13:27;;;;;;;26.45;15.32;;;;;;;1.51;100.00;101263.44;4956194;28;20038;-73
2022/03/07 05:16:13;;;;;;;25.23;14.98;;;;;;;1.44;100.00;101268.41;4955192;29;20031;-75
2022/03/07 05:18:58;;;;;;;27.77;16.15;;;;;;;1.39;100.00;101257.06;4955350;29;20035;-74
2022/03/07 05:21:45;;;;;;;26.42;15.82;;;;;;;1.53;100.00;101253.16;4957083;28;20047;-73
2022/03/07 05:24:31;;;;;;;29.88;16.85;;;;;;;1.76;100.00;101260.69;4954955;29;20034;-75
2022/03/07 05:27:17;;;;;;;27.98;15.73;;;;;;;1.53;100.00;101263.50;4955315;29;20023;-74
2022/03/07 05:30:04;;;;;;;28.40;16.83;;;;;;;1.85;100.00;101260.91;4941031;29;20372;-75
2022/03/07 05:32:52;;;;;;;27.00;15.88;;;;;;;1.84;100.00;101263.50;4956240;28;20042;-73
2022/03/07 05:35:38;;;;;;;31.52;16.83;;;;;;;2.21;100.00;101256.69;4956340;28;20035;-72
2022/03/07 05:38:24;;;;;;;44.03;24.52;;;;;;;2.08;100.00;101261.50;4955079;29;20035;-73
2022/03/07 05:41:10;;;;;;;47.22;26.80;;;;;;;1.84;100.00;101254.00;4955002;28;20070;-72
2022/03/07 05:43:55;;;;;;;52.63;29.50;;;;;;;2.19;100.00;101260.94;4954944;28;20460;-72
2022/03/07 05:46:41;;;;;;;45.55;25.75;;;;;;;2.35;100.00;101252.72;4954588;29;20110;-72
2022/03/07 05:49:27;;;;;;;39.83;22.50;;;;;;;1.96;100.00;101256.91;4956126;29;20110;-71
2022/03/07 05:52:13;;;;;;;38.83;22.60;;;;;;;1.43;100.00;101258.91;4954986;28;20023;-73
2022/03/07 05:54:59;;;;;;;36.97;22.38;;;;;;;1.90;100.00;101263.63;4955978;29;20057;-72
2022/03/07 05:57:44;;;;;;;29.90;18.35;;;;;;;1.94;100.00;101252.53;4955550;29;20035;-73
2022/03/07 06:00:30;;;;;;;27.48;16.15;;;;;;;1.63;100.00;101243.13;4954529;29;20042;-72
2022/03/07 06:03:16;;;;;;;28.15;16.25;;;;;;;2.00;100.00;101247.50;4955166;28;20146;-73
2022/03/07 06:06:02;;;;;;;31.70;16.63;;;;;;;1.92;100.00;101244.75;4954259;29;20039;-72
2022/03/07 06:08:48;;;;;;;21.55;13.68;;;;;;;2.46;100.00;101255.56;4954689;29;20047;-72
2022/03/07 06:11:33;;;;;;;24.15;14.45;;;;;;;1.83;100.00;101248.78;4955124;29;20379;-75
2022/03/07 06:14:19;;;;;;;25.50;15.20;;;;;;;1.78;100.00;101238.38;4954603;28;20032;-74
2022/03/07 06:17:05;;;;;;;23.90;14.55;;;;;;;1.66;100.00;101248.38;4941168;29;20035;-74
2022/03/07 06:19:50;;;;;;;28.85;15.10;;;;;;;1.78;100.00;101246.13;4954904;29;20027;-74
2022/03/07 06:22:36;;;;;;;27.63;16.20;;;;;;;2.11;100.00;101246.97;4954418;28;20039;-75
2022/03/07 06:25:22;;;;;;;29.83;16.58;;;;;;;2.31;100.00;101247.44;4954685;29;20089;-73
2022/03/07 06:28:09;;;;;;;30.98;17.27;;;;;;;2.23;100.00;101247.25;4942583;29;20357;-74
2022/03/07 06:30:54;;;;;;;25.77;15.27;;;;;;;1.77;100.00;101246.94;4941475;29;20027;-74
2022/03/07 06:33:40;;;;;;;29.83;16.40;;;;;;;1.67;100.00;101254.41;4954559;28;20099;-73
2022/03/07 06:36:27;;;;;;;28.55;16.58;;;;;;;1.99;100.00;101258.69;4954049;29;20039;-73
2022/03/07 06:39:13;;;;;;;32.28;17.85;;;;;;;2.35;100.00;101268.25;4956261;29;20035;-74
2022/03/07 06:41:58;;;;;;;33.60;19.35;;;;;;;2.62;100.00;101261.09;4941290;29;20042;-73
2022/03/07 06:44:44;;;;;;;40.00;21.40;;;;;;;2.10;100.00;101258.16;4954952;29;20027;-74
2022/03/07 06:47:30;;;;;;;36.08;19.52;;;;;;;1.95;100.00;101255.16;4954173;29;20027;-74
2022/03/07 06:50:16;;;;;;;36.28;18.77;;;;;;;1.40;100.00;101257.09;4942111;29;20118;-74
2022/03/07 06:53:02;;;;;;;38.65;19.88;;;;;;;1.56;100.00;101256.69;4943262;29;20123;-75
2022/03/07 06:55:48;;;;;;;37.20;19.55;;;;;;;1.41;100.00;101261.44;4944778;29;20360;-75
2022/03/07 06:58:34;;;;;;;36.92;18.88;;;;;;;1.18;100.00;101259.94;4957696;29;20042;-73
2022/03/07 07:01:19;;;;;;;37.72;20.13;;;;;;;1.22;100.00;101263.47;4944608;29;20094;-74
2022/03/07 07:04:05;;;;;;;35.28;17.98;;;;;;;1.16;100.00;101256.41;4957656;28;20043;-74
2022/03/07 07:06:51;;;;;;;31.55;17.33;;;;;;;1.38;100.00;101257.91;4957632;29;20015;-75
2022/03/07 07:09:37;;;;;;;30.48;16.92;;;;;;;1.81;100.00;101250.50;4958253;29;20439;-75
2022/03/07 07:12:23;;;;;;;27.33;15.77;;;;;;;1.81;100.00;101251.34;4957544;28;20031;-74
2022/03/07 07:15:09;;;;;;;29.70;17.55;;;;;;;2.37;100.00;101258.78;4958966;29;20027;-74
2022/03/07 07:17:55;;;;;;;31.13;15.25;;;;;;;2.61;100.00;101261.94;4957712;29;20051;-75
2022/03/07 07:20:41;;;;;;;22.25;14.27;;;;;;;2.20;100.00;101254.94;4957881;29;20031;-73
2022/03/07 07:23:27;;;;;;;23.42;14.35;;;;;;;1.95;100.00;101250.00;4957566;28;20027;-72
2022/03/07 07:26:13;;;;;;;28.98;16.73;;;;;;;2.57;100.00;101254.09;4958772;29;20035;-73
2022/03/07 07:28:59;;;;;;;27.65;16.65;;;;;;;2.63;100.00;101256.81;4957343;29;20028;-72
2022/03/07 07:31:46;;;;;;;26.60;15.77;;;;;;;2.62;100.00;101263.69;4957454;29;20077;-73
2022/03/07 07:34:32;;;;;;;28.70;15.32;;;;;;;2.48;100.00;101262.50;4944217;29;20031;-74
2022/03/07 07:37:18;;;;;;;26.98;15.40;;;;;;;2.37;100.00;101256.22;4957621;29;20452;-74
2022/03/07 07:40:05;;;;;;;26.60;16.15;;;;;;;2.56;100.00;101258.41;4957342;29;20028;-74
2022/03/07 07:42:51;;;;;;;30.55;17.13;;;;;;;2.89;100.00;101259.16;4958122;28;20421;-73
2022/03/07 07:45:37;;;;;;;29.02;17.52;;;;;;;2.47;100.00;101263.38;4957146;29;20061;-73
2022/03/07 07:48:22;;;;;;;27.92;17.10;;;;;;;2.60;100.00;101256.75;4943373;29;20071;-74
2022/03/07 07:51:08;;;;;;;40.42;24.05;;;;;;;2.90;100.00;101254.84;4943641;29;20031;-73
2022/03/07 07:53:54;;;;;;;35.10;20.05;;;;;;;3.22;100.00;101249.50;4957693;28;20371;-73
2022/03/07 07:56:40;;;;;;;35.05;20.23;;;;;;;3.20;100.00;101256.38;4962287;29;20061;-73
2022/03/07 07:59:25;;;;;;;32.85;19.13;;;;;;;3.12;100.00;101251.88;4959786;29;20122;-72
2022/03/07 08:02:11;;;;;;;33.53;18.58;;;;;;;3.51;100.00;101257.84;4958839;28;20031;-72
2022/03/07 08:04:57;;;;;;;28.63;16.30;;;;;;;3.14;100.00;101252.78;4955645;28;20265;-74
2022/03/07 08:07:44;;;;;;;29.65;17.83;;;;;;;2.82;100.00;101271.94;4956705;29;20452;-73
2022/03/07 08:10:30;;;;;;;29.55;18.30;;;;;;;2.91;100.00;101259.19;4957624;29;20035;-73
2022/03/07 08:13:16;;;;;;;26.13;16.23;;;;;;;3.17;100.00;101260.63;4956558;28;20047;-72
2022/03/07 08:16:02;;;;;;;27.00;17.25;;;;;;;2.83;100.00;101258.13;4957201;29;20039;-73
2022/03/07 08:18:47;;;;;;;26.55;15.25;;;;;;;2.92;100.00;101263.50;4957691;29;20027;-72
2022/03/07 08:21:33;;;;;;;24.90;15.55;;;;;;;3.06;100.00;101254.34;4960655;29;20023;-71
2022/03/07 08:24:19;;;;;;;26.58;16.55;;;;;;;3.22;100.00;101246.91;4956634;28;20408;-73
2022/03/07 08:27:05;;;;;;;23.75;15.30;;;;;;;3.26;100.00;101245.28;4957165;29;20031;-73
2022/03/07 08:29:51;;;;;;;25.35;16.20;;;;;;;3.18;100.00;101244.25;4956847;29;20372;-77
2022/03/07 08:32:37;;;;;;;25.65;15.85;;;;;;;2.61;100.00;101255.94;4956993;28;20023;-73
2022/03/07 08:35:24;;;;;;;28.02;17.45;;;;;;;2.99;100.00;101247.28;4956904;29;20058;-72
2022/03/07 08:38:10;;;;;;;31.65;20.25;;;;;;;3.46;100.00;101251.72;4943285;29;20043;-74
2022/03/07 08:40:56;;;;;;;28.52;18.13;;;;;;;2.18;100.00;101254.03;4956090;29;20393;-74
2022/03/07 08:43:42;;;;;;;27.50;15.05;;;;;;;2.17;100.00;101254.84;4956003;28;20035;-74
2022/03/07 08:46:28;;;;;;;25.88;15.70;;;;;;;2.63;100.00;101255.13;4956964;29;20069;-74
2022/03/07 08:49:13;;;;;;;31.58;18.15;;;;;;;2.78;100.00;101252.00;4955930;29;20345;-72
2022/03/07 08:51:59;;;;;;;28.38;17.35;;;;;;;3.24;100.00;101253.00;4956826;29;20020;-75
2022/03/07 08:54:49;;;;;;;25.42;16.55;;;;;;;2.88;100.00;101249.66;4955872;29;20023;-74
2022/03/07 08:57:35;;;;;;;40.72;22.60;;;;;;;2.71;100.00;101256.16;4957314;29;20039;-74
2022/03/07 09:00:21;;;;;;;37.63;22.75;;;;;;;3.12;100.00;101251.88;4956639;29;20034;-75
2022/03/07 09:03:06;;;;;;;36.10;21.65;;;;;;;3.39;100.00;101245.56;4955544;28;20139;-74
2022/03/07 09:05:52;;;;;;;37.42;21.58;;;;;;;3.17;100.00;101248.53;4955905;29;20444;-75
2022/03/07 09:08:38;;;;;;;41.88;23.63;;;;;;;3.24;100.00;101241.75;4942686;29;20027;-74
2022/03/07 09:11:24;;;;;;;40.08;23.48;;;;;;;3.31;100.00;101244.53;4943445;28;20083;-76
2022/03/07 09:14:10;;;;;;;39.67;23.42;;;;;;;2.82;100.00;101253.81;4955659;28;20099;-74
2022/03/07 09:16:56;;;;;;;33.67;19.75;;;;;;;3.09;100.00;101246.66;4954777;28;20463;-74
2022/03/07 09:19:41;;;;;;;29.98;18.33;;;;;;;2.88;100.00;101248.75;4943645;28;20058;-74
2022/03/07 09:22:27;;;;;;;34.92;19.42;;;;;;;2.74;100.00;101252.78;4955281;28;20031;-75
2022/03/07 09:25:14;;;;;;;36.67;21.75;;;;;;;3.13;100.00;101245.88;4955880;29;20027;-74
2022/03/07 09:28:00;;;;;;;44.33;25.77;;;;;;;3.00;100.00;101249.03;4943236;29;20183;-75
2022/03/07 09:30:46;;;;;;;37.03;20.75;;;;;;;3.15;100.00;101236.41;4941637;29;20082;-74
2022/03/07 09:33:33;;;;;;;37.45;20.70;;;;;;;3.28;100.00;101235.81;4955306;28;20486;-74
2022/03/07 09:36:18;;;;;;;34.67;21.00;;;;;;;3.28;100.00;101234.09;4955284;29;20035;-75
2022/03/07 09:39:05;;;;;;;34.97;19.98;;;;;;;3.59;100.00;101246.81;4955715;29;20356;-74
2022/03/07 09:41:51;;;;;;;33.25;19.10;;;;;;;3.78;100.00;101242.84;4941845;29;20035;-74
2022/03/07 09:44:37;;;;;;;33.42;19.70;;;;;;;3.17;100.00;101240.75;4954992;29;20037;-74
2022/03/07 09:47:22;;;;;;;33.15;19.65;;;;;;;3.17;100.00;101248.53;4954787;29;20031;-73
2022/03/07 09:50:11;;;;;;;30.88;18.98;;;;;;;3.38;100.00;101241.19;4954724;29;20106;-74
2022/03/07 09:52:57;;;;;;;29.85;17.48;;;;;;;3.40;100.00;101239.53;4954966;28;20038;-74
2022/03/07 09:55:47;;;;;;;33.45;19.65;;;;;;;3.55;100.00;101236.34;4941057;29;20022;-74
2022/03/07 09:58:33;;;;;;;30.75;19.33;;;;;;;3.50;100.00;101235.41;4956010;29;20117;-74
2022/03/07 10:01:19;;;;;;;31.70;19.17;;;;;;;3.38;100.00;101230.81;4955043;29;20477;-74
2022/03/07 10:04:07;;;;;;;32.00;19.02;;;;;;;3.17;100.00;101230.41;4954464;28;20051;-75
2022/03/07 10:06:53;;;;;;;31.95;19.42;;;;;;;3.13;100.00;101227.75;4941723;29;20027;-75
2022/03/07 10:09:39;;;;;;;32.80;20.02;;;;;;;3.19;100.00;101239.09;4940687;29;20038;-76
2022/03/07 10:12:28;;;;;;;31.77;18.98;;;;;;;2.48;100.00;101244.41;4954339;28;20118;-74
2022/03/07 10:15:17;;;;;;;30.52;18.55;;;;;;;3.38;100.00;101227.38;4955868;29;20031;-74
2022/03/07 10:18:03;;;;;;;31.90;19.17;;;;;;;3.63;100.00;101235.66;4955580;29;20038;-74
2022/03/07 10:20:51;;;;;;;35.25;19.10;;;;;;;3.28;100.00;101226.34;4955906;29;20479;-73
2022/03/07 10:23:37;;;;;;;29.70;18.75;;;;;;;3.72;100.00;101234.94;4955191;28;20467;-73
2022/03/07 10:26:24;;;;;;;35.40;20.35;;;;;;;4.18;100.00;101229.72;4942240;28;20452;-74
2022/03/07 10:29:10;;;;;;;30.38;19.27;;;;;;;3.86;100.00;101234.31;4958862;29;20448;-73
2022/03/07 10:31:57;;;;;;;26.17;17.58;;;;;;;3.90;100.00;101227.50;4959894;29;20169;-74
2022/03/07 10:34:43;;;;;;;31.15;19.80;;;;;;;4.04;100.00;101232.06;4945781;29;20042;-74
2022/03/07 10:37:37;;;;;;;32.70;20.38;;;;;;;4.07;100.00;101226.06;4959816;29;20122;-72
2022/03/07 10:40:23;;;;;;;28.65;18.25;;;;;;;4.44;100.00;101223.19;4959702;29;20090;-74
2022/03/07 10:43:12;;;;;;;28.17;18.38;;;;;;;4.49;100.00;101219.81;4945143;29;20427;-73
2022/03/07 10:46:02;;;;;;;29.33;17.25;;;;;;;4.27;100.00;101222.06;4959645;29;20050;-72
2022/03/07 10:48:50;;;;;;;27.65;16.30;;;;;;;4.21;100.00;101207.28;4959093;29;20065;-75
2022/03/07 10:51:36;;;;;;;24.50;15.70;;;;;;;4.03;100.00;101219.94;4958788;29;20102;-74
2022/03/07 10:54:22;;;;;;;25.98;16.38;;;;;;;3.92;100.00;101205.94;4944721;29;20531;-73
2022/03/07 10:57:09;;;;;;;28.38;17.17;;;;;;;3.59;100.00;101212.25;4945768;29;20035;-73
2022/03/07 11:00:04;;;;;;;25.48;16.70;;;;;;;4.03;100.00;101208.72;4958791;29;20425;-73
2022/03/07 11:02:49;;;;;;;25.98;16.30;;;;;;;4.27;100.00;101203.91;4959568;28;20047;-73
2022/03/07 11:05:35;;;;;;;26.55;17.17;;;;;;;4.23;100.00;101208.16;4957593;29;20027;-74
2022/03/07 11:08:22;;;;;;;25.55;15.77;;;;;;;3.95;100.00;101205.13;4944567;29;20035;-72
2022/03/07 11:11:08;;;;;;;26.08;15.30;;;;;;;4.12;100.00;101199.38;4958928;29;20039;-72
2022/03/07 11:13:55;;;;;;;26.77;16.13;;;;;;;4.43;100.00;101192.94;4962644;28;20027;-72
2022/03/07 11:16:43;;;;;;;27.02;16.73;;;;;;;4.72;100.00;101196.78;4959050;29;20090;-73
2022/03/07 11:19:28;;;;;;;27.15;17.42;;;;;;;4.48;100.00;101188.66;4959200;28;20034;-72
2022/03/07 11:22:15;;;;;;;24.95;16.02;;;;;;;4.43;100.00;101180.81;4944554;28;20037;-73
2022/03/07 11:25:04;;;;;;;27.90;17.10;;;;;;;4.25;100.00;101180.56;4944383;29;20474;-74
2022/03/07 11:27:50;;;;;;;26.42;16.83;;;;;;;4.11;100.00;101176.84;4958235;29;20031;-73
2022/03/07 11:30:42;;;;;;;28.75;17.92;;;;;;;4.21;100.00;101178.75;4958278;29;20062;-73
2022/03/07 11:33:37;;;;;;;27.52;18.05;;;;;;;4.27;100.00;101175.38;4957984;28;20368;-72
2022/03/07 11:36:24;;;;;;;28.73;18.85;;;;;;;4.44;100.00;101167.00;4958035;29;20358;-74
2022/03/07 11:39:12;;;;;;;27.38;18.63;;;;;;;4.43;100.00;101164.38;4957333;28;20035;-72
2022/03/07 11:42:08;;;;;;;30.10;19.00;;;;;;;4.64;100.00;101160.38;4958006;29;20027;-75
2022/03/07 11:45:05;;;;;;;27.88;17.98;;;;;;;4.68;100.00;101154.38;4958235;29;20031;-73
2022/03/07 11:47:51;;;;;;;34.55;20.58;;;;;;;4.77;100.00;101148.41;4957878;29;20031;-72
2022/03/07 11:50:37;;;;;;;28.70;18.23;;;;;;;5.33;100.00;101147.34;4958578;29;20042;-75
2022/03/07 11:53:26;;;;;;;31.58;20.33;;;;;;;4.62;100.00;101143.91;4943841;29;20063;-75
2022/03/07 11:56:19;;;;;;;33.60;21.05;;;;;;;5.26;100.00;101143.81;4957687;29;20368;-74
2022/03/07 11:59:09;;;;;;;28.92;18.17;;;;;;;4.91;100.00;101142.53;4958276;29;20031;-76
2022/03/07 12:01:55;;;;;;;28.25;18.00;;;;;;;4.29;100.00;101139.97;4958180;29;20042;-75
2022/03/07 12:04:43;;;;;;;29.15;16.30;;;;;;;4.63;100.00;101132.66;4942728;29;20428;-71
2022/03/07 12:07:29;;;;;;;26.38;16.73;;;;;;;5.26;100.00;101138.59;4943572;29;20448;-72
2022/03/07 12:10:15;;;;;;;25.83;17.15;;;;;;;5.21;100.00;101137.69;4957342;29;20376;-72
2022/03/07 12:13:09;;;;;;;24.02;16.60;;;;;;;5.39;100.00;101137.03;4958508;28;20078;-71
2022/03/07 12:16:00;;;;;;;24.70;16.25;;;;;;;5.81;100.00;101133.94;4958181;29;20467;-73
2022/03/07 12:18:45;;;;;;;22.13;15.13;;;;;;;5.60;100.00;101133.75;4957997;29;20038;-72
2022/03/07 12:21:31;;;;;;;22.45;15.75;;;;;;;5.79;100.00;101127.84;4943253;29;20464;-72
2022/03/07 12:24:22;;;;;;;22.05;14.88;;;;;;;5.96;100.00;101131.47;4955896;28;20042;-74
2022/03/07 12:27:09;;;;;;;20.05;13.70;;;;;;;5.45;100.00;101134.47;4957445;29;20023;-72
2022/03/07 12:29:54;;;;;;;22.05;14.45;;;;;;;5.44;100.00;101130.13;4943811;29;20097;-73
2022/03/07 12:32:40;;;;;;;21.13;13.73;;;;;;;5.49;100.00;101133.66;4956573;28;20049;-72
2022/03/07 12:35:26;;;;;;;21.10;13.85;;;;;;;5.45;100.00;101129.28;4957691;28;20349;-73